createdAt,value
2022-11-19T00:02:13.502Z,97489.00
2022-11-19T00:05:02.992Z,97487.59
2022-11-19T00:07:50.676Z,97487.59
2022-11-19T00:10:39.533Z,97479.13
2022-11-19T00:13:26.137Z,97481.47
2022-11-19T00:16:15.632Z,97493.41
2022-11-19T00:19:03.617Z,97495.31
2022-11-19T00:21:52.823Z,97496.44
2022-11-19T00:24:40.569Z,97496.97
2022-11-19T00:27:28.139Z,97490.88
2022-11-19T00:30:40.903Z,97495.41
2022-11-19T00:33:24.582Z,97494.47
2022-11-19T00:36:15.357Z,97498.84
2022-11-19T00:39:04.940Z,97509.38
2022-11-19T00:41:53.084Z,97512.00
2022-11-19T00:44:41.178Z,97513.19
2022-11-19T00:47:29.215Z,97503.66
2022-11-19T00:50:17.280Z,97507.38
2022-11-19T00:53:05.339Z,97510.16
2022-11-19T00:55:54.542Z,97507.06
2022-11-19T00:58:42.815Z,97512.56
2022-11-19T01:01:30.713Z,97513.69
2022-11-19T01:04:18.759Z,97516.31
2022-11-19T01:07:06.778Z,97518.34
2022-11-19T01:09:54.724Z,97526.34
2022-11-19T01:12:58.231Z,97535.34
2022-11-19T01:16:15.446Z,97546.56
2022-11-19T01:19:07.516Z,97545.72
2022-11-19T01:22:21.928Z,97549.69
2022-11-19T01:25:11.334Z,97549.22
2022-11-19T01:28:01.553Z,97549.75
2022-11-19T01:30:49.567Z,97541.44
2022-11-19T01:33:37.888Z,97552.19
2022-11-19T01:36:26.949Z,97559.34
2022-11-19T01:39:15.152Z,97558.78
2022-11-19T01:42:08.603Z,97557.34
2022-11-19T01:45:06.144Z,97558.44
2022-11-19T01:47:57.168Z,97558.69
2022-11-19T01:50:49.910Z,97555.50
2022-11-19T01:53:38.286Z,97556.56
2022-11-19T01:56:27.671Z,97546.44
2022-11-19T01:59:18.337Z,97555.41
2022-11-19T02:02:09.026Z,97558.53
2022-11-19T02:04:58.941Z,97569.63
2022-11-19T02:07:54.515Z,97564.63
2022-11-19T02:10:52.309Z,97565.72
2022-11-19T02:13:44.837Z,97561.09
2022-11-19T02:16:44.438Z,97553.47
2022-11-19T02:20:03.654Z,97554.28
2022-11-19T02:23:24.080Z,97567.41
2022-11-19T02:26:56.923Z,97567.41
2022-11-19T02:30:07.361Z,97570.03
2022-11-19T02:33:07.063Z,97568.63
2022-11-19T02:36:01.191Z,97562.69
2022-11-19T02:38:54.466Z,97565.56
2022-11-19T02:41:52.385Z,97573.66
2022-11-19T02:45:02.448Z,97578.44
2022-11-19T02:47:55.028Z,97576.53
2022-11-19T02:50:47.063Z,97574.84
2022-11-19T02:53:35.097Z,97574.16
2022-11-19T02:56:48.551Z,97580.31
2022-11-19T02:59:58.491Z,97582.00
2022-11-19T03:03:10.537Z,97585.69
2022-11-19T03:06:03.616Z,97576.53
2022-11-19T03:08:51.920Z,97585.25
2022-11-19T03:11:40.240Z,97586.09
2022-11-19T03:14:49.905Z,97587.75
2022-11-19T03:17:52.553Z,97590.38
2022-11-19T03:20:49.570Z,97591.34
2022-11-19T03:23:44.002Z,97599.44
2022-11-19T03:26:36.891Z,97604.94
2022-11-19T03:29:27.543Z,97612.78
2022-11-19T03:32:20.795Z,97617.44
2022-11-19T03:35:14.626Z,97621.81
2022-11-19T03:38:08.519Z,97626.13
2022-11-19T03:40:57.014Z,97623.28
2022-11-19T03:43:49.358Z,97624.94
2022-11-19T03:46:40.275Z,97621.59
2022-11-19T03:49:33.018Z,97634.13
2022-11-19T03:52:22.864Z,97631.84
2022-11-19T03:55:12.836Z,97634.34
2022-11-19T03:58:04.858Z,97633.41
2022-11-19T04:00:52.553Z,97636.13
2022-11-19T04:03:40.743Z,97636.63
2022-11-19T04:06:28.575Z,97634.97
2022-11-19T04:09:17.384Z,97642.44
2022-11-19T04:12:08.820Z,97637.09
2022-11-19T04:14:57.192Z,97644.03
2022-11-19T04:17:44.963Z,97647.34
2022-11-19T04:20:33.207Z,97649.25
2022-11-19T04:23:21.261Z,97644.81
2022-11-19T04:26:09.370Z,97649.25
2022-11-19T04:28:58.553Z,97649.25
2022-11-19T04:31:46.388Z,97650.91
2022-11-19T04:34:34.014Z,97655.19
2022-11-19T04:37:22.392Z,97653.53
2022-11-19T04:40:11.536Z,97655.56
2022-11-19T04:42:59.563Z,97652.81
2022-11-19T04:45:48.734Z,97656.41
2022-11-19T04:48:36.660Z,97655.78
2022-11-19T04:51:24.900Z,97653.06
2022-11-19T04:54:13.162Z,97656.63
2022-11-19T04:57:00.805Z,97659.25
2022-11-19T04:59:48.747Z,97661.88
2022-11-19T05:02:38.232Z,97667.13
2022-11-19T05:05:26.197Z,97656.63
2022-11-19T05:08:14.166Z,97653.31
2022-11-19T05:11:02.012Z,97646.28
2022-11-19T05:13:50.049Z,97655.22
2022-11-19T05:16:37.969Z,97653.56
2022-11-19T05:19:27.175Z,97649.13
2022-11-19T05:22:15.126Z,97656.06
2022-11-19T05:25:03.322Z,97649.97
2022-11-19T05:27:51.765Z,97653.56
2022-11-19T05:30:39.824Z,97651.06
2022-11-19T05:33:32.745Z,97652.81
2022-11-19T05:36:23.358Z,97645.94
2022-11-19T05:39:11.608Z,97650.19
2022-11-19T05:41:59.680Z,97651.06
2022-11-19T05:44:47.810Z,97651.84
2022-11-19T05:47:36.365Z,97648.66
2022-11-19T05:50:24.010Z,97636.13
2022-11-19T05:53:13.423Z,97630.31
2022-11-19T05:56:01.175Z,97638.97
2022-11-19T05:58:49.320Z,97636.81
2022-11-19T06:01:37.564Z,97658.53
2022-11-19T06:04:25.840Z,97666.88
2022-11-19T06:07:13.688Z,97663.28
2022-11-19T06:10:03.263Z,97666.63
2022-11-19T06:12:51.153Z,97667.09
2022-11-19T06:15:39.308Z,97670.44
2022-11-19T06:18:27.362Z,97669.47
2022-11-19T06:21:16.129Z,97671.75
2022-11-19T06:24:04.639Z,97668.28
2022-11-19T06:26:56.214Z,97669.47
2022-11-19T06:29:44.150Z,97677.91
2022-11-19T06:32:32.654Z,97686.16
2022-11-19T06:35:20.443Z,97697.22
2022-11-19T06:38:08.558Z,97702.22
2022-11-19T06:40:56.377Z,97698.44
2022-11-19T06:43:46.091Z,97709.75
2022-11-19T06:46:34.080Z,97709.50
2022-11-19T06:49:22.460Z,97710.22
2022-11-19T06:52:10.874Z,97713.81
2022-11-19T06:54:58.847Z,97712.00
2022-11-19T06:57:47.012Z,97719.88
2022-11-19T07:00:37.363Z,97724.19
2022-11-19T07:03:26.495Z,97727.63
2022-11-19T07:06:14.558Z,97737.41
2022-11-19T07:09:03.186Z,97726.19
2022-11-19T07:11:53.101Z,97726.06
2022-11-19T07:14:41.236Z,97737.63
2022-11-19T07:17:30.772Z,97749.53
2022-11-19T07:20:19.449Z,97753.59
2022-11-19T07:23:11.543Z,97751.69
2022-11-19T07:26:04.321Z,97756.94
2022-11-19T07:28:52.277Z,97769.81
2022-11-19T07:31:43.501Z,97757.75
2022-11-19T07:34:35.982Z,97755.97
2022-11-19T07:37:24.145Z,97751.06
2022-11-19T07:40:15.048Z,97748.56
2022-11-19T07:43:02.321Z,97754.03
2022-11-19T07:45:50.813Z,97757.13
2022-11-19T07:48:38.806Z,97759.28
2022-11-19T07:51:28.402Z,97748.63
2022-11-19T07:54:16.571Z,97752.06
2022-11-19T07:57:04.848Z,97759.22
2022-11-19T07:59:53.078Z,97749.19
2022-11-19T08:03:53.446Z,97760.41
2022-11-19T08:07:11.846Z,97763.25
2022-11-19T08:10:12.290Z,97768.13
2022-11-19T08:17:39.623Z,97777.78
2022-11-19T08:20:27.620Z,97772.00
2022-11-19T08:23:20.340Z,97778.53
2022-11-19T08:26:08.830Z,97777.34
2022-11-19T08:28:57.042Z,97775.91
2022-11-19T08:31:46.962Z,97784.94
2022-11-19T08:34:35.246Z,97785.75
2022-11-19T08:37:23.197Z,97785.53
2022-11-19T08:40:13.786Z,97780.41
2022-11-19T08:43:09.011Z,97786.16
2022-11-19T08:45:57.142Z,97779.72
2022-11-19T08:48:45.398Z,97778.19
2022-11-19T08:51:43.391Z,97785.94
2022-11-19T08:54:33.130Z,97785.69
2022-11-19T08:57:22.270Z,97796.53
2022-11-19T09:07:49.837Z,97796.53
2022-11-19T09:10:48.887Z,97804.59
2022-11-19T09:13:38.278Z,97803.44
2022-11-19T09:16:26.522Z,97805.38
2022-11-19T09:19:14.522Z,97801.81
2022-11-19T09:22:02.607Z,97810.19
2022-11-19T09:24:50.900Z,97818.38
2022-11-19T09:27:39.299Z,97818.78
2022-11-19T09:30:28.497Z,97816.16
2022-11-19T09:33:16.470Z,97819.25
2022-11-19T09:36:05.065Z,97830.00
2022-11-19T09:38:57.416Z,97821.94
2022-11-19T09:41:51.284Z,97830.25
2022-11-19T09:44:52.623Z,97830.72
2022-11-19T09:47:55.421Z,97826.25
2022-11-19T09:50:53.524Z,97831.72
2022-11-19T09:53:47.573Z,97827.97
2022-11-19T09:56:38.525Z,97830.03
2022-11-19T09:59:29.433Z,97831.22
2022-11-19T10:02:19.572Z,97829.47
2022-11-19T10:05:14.707Z,97827.06
2022-11-19T10:08:18.300Z,97837.09
2022-11-19T10:11:22.531Z,97819.25
2022-11-19T10:14:22.411Z,97818.31
2022-11-19T10:17:20.510Z,97825.59
2022-11-19T10:20:22.769Z,97825.13
2022-11-19T10:23:17.740Z,97820.34
2022-11-19T10:26:11.511Z,97827.75
2022-11-19T10:29:00.797Z,97823.72
2022-11-19T10:31:52.978Z,97826.34
2022-11-19T10:34:43.654Z,97825.81
2022-11-19T10:37:40.386Z,97815.84
2022-11-19T10:40:34.770Z,97824.91
2022-11-19T10:43:29.917Z,97817.31
2022-11-19T10:46:29.579Z,97822.91
2022-11-19T10:49:18.494Z,97812.06
2022-11-19T10:52:10.741Z,97804.53
2022-11-19T10:55:14.986Z,97802.50
2022-11-19T10:58:12.937Z,97802.03
2022-11-19T11:01:06.052Z,97789.38
2022-11-19T11:04:21.425Z,97792.34
2022-11-19T11:07:12.553Z,97785.53
2022-11-19T11:10:02.462Z,97789.25
2022-11-19T11:13:12.730Z,97787.47
2022-11-19T11:16:10.116Z,97787.97
2022-11-19T11:19:01.171Z,97786.16
2022-11-19T11:21:54.994Z,97782.22
2022-11-19T11:24:43.319Z,97786.16
2022-11-19T11:27:35.634Z,97784.84
2022-11-19T11:30:23.683Z,97787.22
2022-11-19T11:33:28.489Z,97783.06
2022-11-19T11:36:21.797Z,97784.81
2022-11-19T11:39:27.187Z,97779.44
2022-11-19T11:42:20.657Z,97798.69
2022-11-19T11:45:32.725Z,97796.78
2022-11-19T11:48:23.280Z,97797.97
2022-11-19T11:51:29.404Z,97791.66
2022-11-19T11:54:23.189Z,97788.91
2022-11-19T11:57:18.833Z,97781.78
2022-11-19T12:00:32.886Z,97777.25
2022-11-19T12:03:21.231Z,97764.84
2022-11-19T12:06:16.399Z,97777.25
2022-11-19T12:09:10.863Z,97782.25
2022-11-19T12:12:05.116Z,97788.81
2022-11-19T12:14:59.003Z,97793.22
2022-11-19T12:17:58.828Z,97792.97
2022-11-19T12:20:55.108Z,97789.97
2022-11-19T12:23:59.720Z,97800.34
2022-11-19T12:27:08.767Z,97801.06
2022-11-19T12:30:05.607Z,97800.97
2022-11-19T12:33:17.245Z,97786.78
2022-11-19T12:36:14.667Z,97779.38
2022-11-19T12:39:10.456Z,97775.09
2022-11-19T12:42:22.146Z,97773.53
2022-11-19T12:45:18.809Z,97776.97
2022-11-19T12:48:35.272Z,97785.34
2022-11-19T12:51:37.971Z,97779.38
2022-11-19T12:54:47.373Z,97779.50
2022-11-19T12:57:48.399Z,97784.13
2022-11-19T13:00:42.337Z,97777.94
2022-11-19T13:03:47.751Z,97781.25
2022-11-19T13:07:26.472Z,97782.00
2022-11-19T13:10:19.611Z,97773.16
2022-11-19T13:13:15.119Z,97781.38
2022-11-19T13:16:13.828Z,97789.13
2022-11-19T13:27:08.880Z,97785.81
2022-11-19T13:30:03.480Z,97784.13
2022-11-19T13:33:02.512Z,97789.34
2022-11-19T13:35:58.957Z,97783.88
2022-11-19T13:38:53.651Z,97783.88
2022-11-19T13:42:01.419Z,97777.81
2022-11-19T13:44:50.597Z,97789.97
2022-11-19T13:47:45.673Z,97794.59
2022-11-19T13:50:40.368Z,97789.81
2022-11-19T13:53:34.949Z,97782.81
2022-11-19T13:56:23.810Z,97789.59
2022-11-19T13:59:31.509Z,97791.28
2022-11-19T14:02:52.753Z,97787.47
2022-11-19T14:06:12.235Z,97787.81
2022-11-19T14:09:21.442Z,97792.94
2022-11-19T14:12:40.466Z,97790.31
2022-11-19T14:16:09.467Z,97792.94
2022-11-19T14:19:20.759Z,97797.09
2022-11-19T14:22:58.739Z,97792.94
2022-11-19T14:26:06.065Z,97788.53
2022-11-19T14:28:54.338Z,97795.44
2022-11-19T14:32:11.852Z,97796.28
2022-11-19T14:35:28.924Z,97799.72
2022-11-19T14:38:39.459Z,97798.41
2022-11-19T14:41:36.192Z,97798.66
2022-11-19T14:44:35.913Z,97794.03
2022-11-19T14:47:38.330Z,97798.41
2022-11-19T14:50:31.632Z,97792.94
2022-11-19T15:15:04.408Z,97800.06
2022-11-19T15:18:03.665Z,97805.44
2022-11-19T15:21:22.719Z,97806.50
2022-11-19T15:24:22.665Z,97810.53
2022-11-19T15:27:21.081Z,97806.78
2022-11-19T15:30:18.951Z,97820.00
2022-11-19T15:33:40.032Z,97810.16
2022-11-19T15:36:38.526Z,97805.53
2022-11-19T15:39:31.749Z,97796.78
2022-11-19T15:42:23.609Z,97790.59
2022-11-19T15:45:18.197Z,97782.44
2022-11-19T15:48:15.293Z,97781.00
2022-11-19T15:51:03.672Z,97777.66
2022-11-19T15:54:03.405Z,97777.44
2022-11-19T15:56:52.370Z,97798.03
2022-11-19T15:59:40.489Z,97810.91
2022-11-19T16:02:37.569Z,97824.72
2022-11-19T16:05:27.605Z,97827.13
2022-11-19T16:08:17.125Z,97822.59
2022-11-19T16:11:23.461Z,97823.44
2022-11-19T16:14:38.696Z,97815.72
2022-11-19T16:17:41.809Z,97828.06
2022-11-19T16:20:35.371Z,97833.09
2022-11-19T16:23:25.880Z,97848.06
2022-11-19T16:26:13.841Z,97840.09
2022-11-19T16:29:03.411Z,97848.81
2022-11-19T16:31:53.157Z,97847.84
2022-11-19T16:34:41.117Z,97847.84
2022-11-19T16:37:30.387Z,97840.94
2022-11-19T16:40:19.541Z,97838.31
2022-11-19T16:43:06.633Z,97835.69
2022-11-19T16:45:54.722Z,97834.28
2022-11-19T16:49:00.876Z,97824.72
2022-11-19T16:51:54.244Z,97822.53
2022-11-19T16:54:48.810Z,97819.91
2022-11-19T16:57:36.727Z,97821.72
2022-11-19T17:00:28.369Z,97835.06
2022-11-19T17:03:32.172Z,97839.84
2022-11-19T17:06:25.566Z,97857.22
2022-11-19T17:09:31.387Z,97847.81
2022-11-19T17:12:29.820Z,97841.72
2022-11-19T17:15:39.578Z,97837.56
2022-11-19T17:18:30.607Z,97840.28
2022-11-19T17:21:27.406Z,97840.28
2022-11-19T17:24:21.507Z,97844.69
2022-11-19T17:27:23.732Z,97854.34
2022-11-19T17:30:23.016Z,97860.16
2022-11-19T17:33:18.204Z,97848.03
2022-11-19T17:36:13.589Z,97861.13
2022-11-19T17:39:01.512Z,97866.38
2022-11-19T17:42:09.835Z,97867.28
2022-11-19T17:44:57.569Z,97869.91
2022-11-19T17:47:47.924Z,97870.88
2022-11-19T17:50:35.812Z,97872.53
2022-11-19T17:53:24.776Z,97875.03
2022-11-19T17:56:20.187Z,97881.13
2022-11-19T17:59:08.172Z,97884.69
2022-11-19T18:01:58.362Z,97887.22
2022-11-19T18:04:49.318Z,97887.44
2022-11-19T18:07:37.403Z,97891.81
2022-11-19T18:10:25.449Z,97886.78
2022-11-19T18:13:15.917Z,97873.81
2022-11-19T18:16:10.259Z,97887.03
2022-11-19T18:18:58.464Z,97888.72
2022-11-19T18:21:47.991Z,97874.88
2022-11-19T18:24:35.888Z,97874.25
2022-11-19T18:27:23.960Z,97883.91
2022-11-19T18:30:12.976Z,97886.53
2022-11-19T18:33:04.025Z,97875.94
2022-11-19T18:35:54.402Z,97874.38
2022-11-19T18:38:43.850Z,97883.41
2022-11-19T18:41:32.737Z,97884.25
2022-11-19T18:44:43.389Z,97892.91
2022-11-19T18:47:31.873Z,97893.75
2022-11-19T18:50:28.240Z,97895.25
2022-11-19T18:53:17.974Z,97888.16
2022-11-19T18:56:07.515Z,97886.44
2022-11-19T18:58:58.036Z,97882.06
2022-11-19T19:01:48.202Z,97884.78
2022-11-19T19:04:39.227Z,97891.69
2022-11-19T19:07:27.231Z,97897.66
2022-11-19T19:10:15.318Z,97877.66
2022-11-19T19:13:04.575Z,97856.16
2022-11-19T19:15:52.701Z,97870.81
2022-11-19T19:18:40.844Z,97878.34
2022-11-19T19:21:29.189Z,97886.50
2022-11-19T19:24:16.979Z,97891.31
2022-11-19T19:27:05.399Z,97895.69
2022-11-19T19:29:54.615Z,97902.09
2022-11-19T19:32:42.299Z,97904.28
2022-11-19T19:35:30.307Z,97903.75
2022-11-19T19:38:20.820Z,97908.03
2022-11-19T19:41:11.834Z,97912.34
2022-11-19T19:44:05.664Z,97903.53
2022-11-19T19:46:55.179Z,97907.59
2022-11-19T19:49:43.555Z,97902.38
2022-11-19T19:52:31.491Z,97912.13
2022-11-19T19:55:19.837Z,97917.69
2022-11-19T19:58:08.355Z,97923.53
2022-11-19T20:00:56.113Z,97915.69
2022-11-19T20:03:50.313Z,97907.44
2022-11-19T20:06:45.552Z,97913.94
2022-11-19T20:09:33.867Z,97923.25
2022-11-19T20:12:21.914Z,97917.69
2022-11-19T20:15:11.025Z,97921.88
2022-11-19T20:17:58.982Z,97924.81
2022-11-19T20:20:48.382Z,97926.38
2022-11-19T20:23:36.817Z,97927.09
2022-11-19T20:26:30.510Z,97930.47
2022-11-19T20:29:20.526Z,97938.22
2022-11-19T20:32:08.689Z,97928.56
2022-11-19T20:34:56.847Z,97912.47
2022-11-19T20:37:46.248Z,97921.03
2022-11-19T20:40:34.675Z,97923.75
2022-11-19T20:43:45.862Z,97927.94
2022-11-19T20:46:37.491Z,97932.97
2022-11-19T20:49:27.457Z,97931.16
2022-11-19T20:52:17.137Z,97924.28
2022-11-19T20:55:07.961Z,97924.91
2022-11-19T20:57:57.666Z,97927.63
2022-11-19T21:00:45.750Z,97926.69
2022-11-19T21:03:35.012Z,97925.00
2022-11-19T21:06:31.449Z,97919.78
2022-11-19T21:09:20.611Z,97916.19
2022-11-19T21:12:13.507Z,97913.91
2022-11-19T21:15:02.044Z,97918.06
2022-11-19T21:17:49.984Z,97910.97
2022-11-19T21:20:38.458Z,97914.53
2022-11-19T21:23:28.963Z,97920.75
2022-11-19T21:26:19.808Z,97925.44
2022-11-19T21:29:13.917Z,97913.91
2022-11-19T21:32:01.688Z,97915.56
2022-11-19T21:34:50.558Z,97929.50
2022-11-19T21:37:38.944Z,97930.13
2022-11-19T21:40:27.319Z,97923.09
2022-11-19T21:43:15.169Z,97913.47
2022-11-19T21:46:08.867Z,97919.56
2022-11-19T21:49:04.640Z,97923.84
2022-11-19T21:51:53.476Z,97910.75
2022-11-19T21:54:41.179Z,97894.19
2022-11-19T21:57:30.298Z,97903.13
2022-11-19T22:00:21.970Z,97907.59
2022-11-19T22:03:11.840Z,97912.94
2022-11-19T22:06:01.814Z,97911.19
2022-11-19T22:08:53.074Z,97910.44
2022-11-19T22:11:41.714Z,97909.31
2022-11-19T22:14:41.939Z,97908.34
2022-11-19T22:17:32.782Z,97923.22
2022-11-19T22:20:24.069Z,97919.56
2022-11-19T22:23:12.003Z,97921.22
2022-11-19T22:26:08.808Z,97910.00
2022-11-19T22:28:59.888Z,97901.34
2022-11-19T22:31:47.910Z,97907.38
2022-11-19T22:34:37.161Z,97910.00
2022-11-19T22:37:26.990Z,97904.78
2022-11-19T22:43:26.234Z,97893.38
2022-11-19T22:46:15.303Z,97891.69
2022-11-19T22:49:04.121Z,97885.63
2022-11-19T22:51:52.139Z,97882.28
2022-11-19T22:54:44.577Z,97886.66
2022-11-19T22:57:35.581Z,97885.13
2022-11-19T23:00:41.393Z,97884.25
2022-11-19T23:03:29.961Z,97878.31
2022-11-19T23:06:18.816Z,97879.13
2022-11-19T23:09:10.645Z,97873.91
2022-11-19T23:12:17.504Z,97879.25
2022-11-19T23:15:12.000Z,97891.09
2022-11-19T23:18:00.792Z,97891.75
2022-11-19T23:20:48.712Z,97891.75
2022-11-19T23:23:37.969Z,97884.69
2022-11-19T23:26:28.579Z,97885.66
2022-11-19T23:29:18.384Z,97877.09
2022-11-19T23:32:06.550Z,97887.56
2022-11-19T23:34:55.000Z,97894.47
2022-11-19T23:37:42.884Z,97885.66
2022-11-19T23:40:30.712Z,97896.13
2022-11-19T23:43:18.603Z,97889.81
2022-11-19T23:46:09.676Z,97878.53
2022-11-19T23:48:59.257Z,97880.41
2022-11-19T23:51:47.312Z,97888.16
2022-11-19T23:54:35.302Z,97876.03
2022-11-19T23:57:23.394Z,97872.56
